VLG2473 GCFV-GCRR
Flight info
| Callsign | VLG2473 |
|---|---|
| Flight time | 0h 11m |
| Altitude | 6000 |
| Route | ML19 DCT ADOVO DCT FV672 DCT GOLFY |
| Aircraft | A320/M-SDE3FGHIRWY/LB1 |
Departure
| Time | 2026-04-28 16:46 |
|---|---|
| Airport | Fuerteventura Airport (GCFV) |
Arrival
| Time | 2026-04-28 16:57 |
|---|---|
| Airport | César Manrique-Lanzarote Airport (GCRR) |
| Time | Latitude | Longitude | Altitude | Speed | Heading |
|---|---|---|---|---|---|
| 2026-04-28 16:29 | 28.45488 | -13.86655 | 100 ft | 0 kts | 272° |
| 2026-04-28 16:39 | 28.45489 | -13.86687 | 100 ft | 9 kts | 272° |
| 2026-04-28 16:39 | 28.45462 | -13.86720 | 99 ft | 8 kts | 189° |
| 2026-04-28 16:40 | 28.45388 | -13.86731 | 99 ft | 9 kts | 178° |
| 2026-04-28 16:40 | 28.45373 | -13.86683 | 98 ft | 10 kts | 95° |
| 2026-04-28 16:40 | 28.45369 | -13.86604 | 97 ft | 10 kts | 99° |
| 2026-04-28 16:40 | 28.45301 | -13.86568 | 95 ft | 13 kts | 181° |
| 2026-04-28 16:41 | 28.45219 | -13.86570 | 95 ft | 11 kts | 181° |
| 2026-04-28 16:41 | 28.45147 | -13.86572 | 98 ft | 10 kts | 181° |
| 2026-04-28 16:41 | 28.45083 | -13.86574 | 95 ft | 9 kts | 181° |
| 2026-04-28 16:41 | 28.45005 | -13.86579 | 95 ft | 16 kts | 182° |
| 2026-04-28 16:42 | 28.44875 | -13.86582 | 93 ft | 19 kts | 181° |
| 2026-04-28 16:42 | 28.44724 | -13.86590 | 73 ft | 25 kts | 182° |
| 2026-04-28 16:42 | 28.44540 | -13.86598 | 71 ft | 28 kts | 182° |
| 2026-04-28 16:42 | 28.44329 | -13.86599 | 61 ft | 31 kts | 181° |
| 2026-04-28 16:43 | 28.44137 | -13.86606 | 55 ft | 29 kts | 182° |
| 2026-04-28 16:43 | 28.43916 | -13.86613 | 48 ft | 34 kts | 181° |
| 2026-04-28 16:43 | 28.43666 | -13.86622 | 39 ft | 37 kts | 182° |
| 2026-04-28 16:43 | 28.43510 | -13.86627 | 38 ft | 18 kts | 181° |
| 2026-04-28 16:44 | 28.43386 | -13.86631 | 35 ft | 18 kts | 185° |
| 2026-04-28 16:44 | 28.43308 | -13.86571 | 33 ft | 14 kts | 97° |
| 2026-04-28 16:44 | 28.43308 | -13.86471 | 34 ft | 11 kts | 83° |
| 2026-04-28 16:44 | 28.43361 | -13.86438 | 34 ft | 10 kts | 2° |
| 2026-04-28 16:45 | 28.43497 | -13.86436 | 33 ft | 39 kts | 1° |
| 2026-04-28 16:45 | 28.44018 | -13.86420 | 36 ft | 107 kts | 0° |
| 2026-04-28 16:45 | 28.44926 | -13.86387 | 155 ft | 142 kts | 358° |
| 2026-04-28 16:45 | 28.45929 | -13.86331 | 673 ft | 150 kts | 360° |
| 2026-04-28 16:46 | 28.46996 | -13.86206 | 1178 ft | 159 kts | 1° |
| 2026-04-28 16:46 | 28.48145 | -13.85919 | 1627 ft | 182 kts | 19° |
| 2026-04-28 16:46 | 28.49305 | -13.85128 | 1986 ft | 206 kts | 30° |
| 2026-04-28 16:46 | 28.50501 | -13.84228 | 2754 ft | 205 kts | 30° |
| 2026-04-28 16:47 | 28.51693 | -13.83329 | 3487 ft | 207 kts | 31° |
| 2026-04-28 16:47 | 28.52910 | -13.82419 | 4168 ft | 212 kts | 31° |
| 2026-04-28 16:47 | 28.54156 | -13.81489 | 4870 ft | 216 kts | 32° |
| 2026-04-28 16:47 | 28.55395 | -13.80564 | 5601 ft | 216 kts | 32° |
| 2026-04-28 16:48 | 28.56660 | -13.79633 | 6067 ft | 217 kts | 28° |
| 2026-04-28 16:48 | 28.58026 | -13.78874 | 5983 ft | 220 kts | 22° |
| 2026-04-28 16:48 | 28.59407 | -13.78173 | 5767 ft | 212 kts | 23° |
| 2026-04-28 16:48 | 28.60724 | -13.77504 | 5586 ft | 204 kts | 22° |
| 2026-04-28 16:49 | 28.62023 | -13.76847 | 5463 ft | 205 kts | 22° |
| 2026-04-28 16:49 | 28.63328 | -13.76185 | 5284 ft | 205 kts | 22° |
| 2026-04-28 16:49 | 28.64619 | -13.75529 | 4989 ft | 201 kts | 21° |
| 2026-04-28 16:49 | 28.65886 | -13.74886 | 4643 ft | 198 kts | 22° |
| 2026-04-28 16:50 | 28.67127 | -13.74256 | 4425 ft | 191 kts | 23° |
| 2026-04-28 16:50 | 28.68330 | -13.73645 | 4088 ft | 190 kts | 23° |
| 2026-04-28 16:50 | 28.69535 | -13.73100 | 3980 ft | 184 kts | 16° |
| 2026-04-28 16:50 | 28.70765 | -13.72647 | 3908 ft | 188 kts | 16° |
| 2026-04-28 16:51 | 28.72017 | -13.72182 | 3830 ft | 190 kts | 16° |
| 2026-04-28 16:51 | 28.73273 | -13.71716 | 3744 ft | 190 kts | 17° |
| 2026-04-28 16:51 | 28.74518 | -13.71254 | 3656 ft | 186 kts | 18° |
| 2026-04-28 16:51 | 28.75731 | -13.70802 | 3579 ft | 182 kts | 16° |
| 2026-04-28 16:52 | 28.76932 | -13.70356 | 3500 ft | 181 kts | 17° |
| 2026-04-28 16:52 | 28.77722 | -13.70063 | 3421 ft | 180 kts | 18° |
| 2026-04-28 16:52 | 28.79244 | -13.69336 | 3174 ft | 178 kts | 24° |
| 2026-04-28 16:52 | 28.80340 | -13.68732 | 2950 ft | 172 kts | 24° |
| 2026-04-28 16:53 | 28.81388 | -13.68136 | 2739 ft | 163 kts | 24° |
| 2026-04-28 16:53 | 28.82394 | -13.67557 | 2512 ft | 159 kts | 24° |
| 2026-04-28 16:53 | 28.83377 | -13.66989 | 2271 ft | 159 kts | 23° |
| 2026-04-28 16:53 | 28.84354 | -13.66426 | 2058 ft | 157 kts | 22° |
| 2026-04-28 16:54 | 28.85021 | -13.66040 | 1915 ft | 158 kts | 21° |
| 2026-04-28 16:54 | 28.85990 | -13.65479 | 1703 ft | 156 kts | 23° |
| 2026-04-28 16:54 | 28.86943 | -13.64928 | 1494 ft | 157 kts | 21° |
| 2026-04-28 16:54 | 28.87899 | -13.64374 | 1283 ft | 148 kts | 22° |
| 2026-04-28 16:55 | 28.88808 | -13.63847 | 1074 ft | 142 kts | 24° |
| 2026-04-28 16:55 | 28.89663 | -13.63351 | 899 ft | 137 kts | 25° |
| 2026-04-28 16:55 | 28.90493 | -13.62871 | 732 ft | 131 kts | 21° |
| 2026-04-28 16:55 | 28.91310 | -13.62400 | 562 ft | 132 kts | 21° |
| 2026-04-28 16:56 | 28.92129 | -13.61927 | 388 ft | 131 kts | 25° |
| 2026-04-28 16:56 | 28.92938 | -13.61454 | 223 ft | 132 kts | 22° |
| 2026-04-28 16:56 | 28.93759 | -13.60977 | 54 ft | 131 kts | 21° |
| 2026-04-28 16:56 | 28.94471 | -13.60570 | 34 ft | 89 kts | 27° |
| 2026-04-28 16:57 | 28.94873 | -13.60339 | 45 ft | 40 kts | 28° |
| 2026-04-28 16:57 | 28.95075 | -13.60230 | 50 ft | 29 kts | 18° |
| 2026-04-28 16:57 | 28.95246 | -13.60206 | 46 ft | 14 kts | 1° |
| 2026-04-28 16:57 | 28.95324 | -13.60246 | 50 ft | 12 kts | 293° |
| 2026-04-28 16:58 | 28.95276 | -13.60307 | 50 ft | 10 kts | 203° |
| 2026-04-28 16:58 | 28.95216 | -13.60338 | 50 ft | 9 kts | 207° |
| 2026-04-28 16:58 | 28.95164 | -13.60370 | 50 ft | 9 kts | 209° |
| 2026-04-28 16:58 | 28.95113 | -13.60436 | 50 ft | 11 kts | 284° |
| 2026-04-28 16:59 | 28.95139 | -13.60520 | 50 ft | 11 kts | 264° |
| 2026-04-28 16:59 | 28.95086 | -13.60576 | 50 ft | 10 kts | 219° |
| 2026-04-28 16:59 | 28.95088 | -13.60609 | 50 ft | 4 kts | 302° |
| 2026-04-28 16:59 | 28.95113 | -13.60664 | 50 ft | 10 kts | 296° |
| 2026-04-28 17:00 | 28.95124 | -13.60690 | 50 ft | 3 kts | 296° |
| 2026-04-28 17:00 | 28.95127 | -13.60697 | 48 ft | 0 kts | 296° |